createdAt,value
2019-01-25T00:01:12.294Z,22.05
2019-01-25T00:03:40.475Z,23.80
2019-01-25T00:06:08.670Z,23.18
2019-01-25T00:08:37.156Z,25.05
2019-01-25T00:11:07.320Z,25.27
2019-01-25T00:13:35.045Z,25.27
2019-01-25T00:16:03.649Z,23.75
2019-01-25T00:18:31.792Z,24.00
2019-01-25T00:21:01.005Z,25.00
2019-01-25T00:23:28.663Z,23.92
2019-01-25T00:25:57.110Z,22.50
2019-01-25T00:28:25.218Z,23.42
2019-01-25T00:30:55.106Z,22.60
2019-01-25T00:33:23.225Z,25.48
2019-01-25T00:35:51.365Z,21.33
2019-01-25T00:38:19.721Z,24.82
2019-01-25T00:40:48.167Z,25.05
2019-01-25T00:43:17.115Z,23.57
2019-01-25T00:45:44.777Z,27.95
2019-01-25T00:48:12.845Z,26.95
2019-01-25T00:50:40.725Z,26.45
2019-01-25T00:53:12.939Z,24.47
2019-01-25T00:55:41.467Z,26.15
2019-01-25T00:58:10.044Z,27.32
2019-01-25T01:00:37.805Z,28.40
2019-01-25T01:03:07.512Z,26.00
2019-01-25T01:05:35.187Z,26.50
2019-01-25T01:08:03.868Z,26.30
2019-01-25T01:10:31.935Z,29.25
2019-01-25T01:12:59.718Z,26.85
2019-01-25T01:15:27.776Z,27.67
2019-01-25T01:17:56.391Z,31.93
2019-01-25T01:20:25.691Z,28.50
2019-01-25T01:22:53.375Z,27.45
2019-01-25T01:25:22.198Z,24.40
2019-01-25T01:27:50.297Z,28.87
2019-01-25T01:30:21.768Z,30.75
2019-01-25T01:32:50.356Z,27.65
2019-01-25T01:35:18.701Z,27.93
2019-01-25T01:37:47.859Z,25.43
2019-01-25T01:40:22.140Z,26.00
2019-01-25T01:42:48.369Z,28.73
2019-01-25T01:45:17.033Z,27.75
2019-01-25T01:47:45.852Z,26.48
2019-01-25T01:50:14.561Z,25.62
2019-01-25T01:52:42.722Z,23.98
2019-01-25T01:55:10.450Z,27.70
2019-01-25T01:57:38.427Z,26.12
2019-01-25T02:00:09.803Z,25.10
2019-01-25T02:02:37.477Z,27.35
2019-01-25T02:05:06.841Z,25.75
2019-01-25T02:07:34.605Z,26.50
2019-01-25T02:10:03.289Z,26.97
2019-01-25T02:12:31.997Z,26.37
2019-01-25T02:15:00.043Z,28.42
2019-01-25T02:17:28.888Z,25.27
2019-01-25T02:19:56.909Z,25.17
2019-01-25T02:22:24.684Z,26.50
2019-01-25T02:24:52.919Z,24.47
2019-01-25T02:27:21.323Z,26.37
2019-01-25T02:29:49.410Z,27.37
2019-01-25T02:32:17.797Z,26.75
2019-01-25T02:34:46.169Z,28.42
2019-01-25T02:37:14.654Z,27.13
2019-01-25T02:39:42.988Z,26.75
2019-01-25T02:42:11.908Z,25.75
2019-01-25T02:44:40.086Z,27.98
2019-01-25T02:47:08.791Z,29.05
2019-01-25T02:49:36.394Z,26.77
2019-01-25T02:52:05.309Z,27.55
2019-01-25T02:54:33.288Z,24.67
2019-01-25T02:57:01.371Z,27.00
2019-01-25T02:59:28.669Z,27.42
2019-01-25T03:01:57.188Z,25.10
2019-01-25T03:04:25.901Z,28.55
2019-01-25T03:06:53.962Z,27.50
2019-01-25T03:09:21.707Z,26.02
2019-01-25T03:11:49.480Z,24.27
2019-01-25T03:14:17.160Z,26.27
2019-01-25T03:16:45.112Z,26.93
2019-01-25T03:19:13.189Z,24.12
2019-01-25T03:21:41.395Z,27.65
2019-01-25T03:24:09.545Z,26.70
2019-01-25T03:26:37.907Z,27.98
2019-01-25T03:29:05.187Z,26.97
2019-01-25T03:31:33.748Z,28.42
2019-01-25T03:34:02.327Z,27.75
2019-01-25T03:36:29.705Z,26.60
2019-01-25T03:38:57.652Z,25.82
2019-01-25T03:41:25.728Z,29.23
2019-01-25T03:43:53.817Z,27.75
2019-01-25T03:46:22.399Z,27.82
2019-01-25T03:48:50.466Z,26.93
2019-01-25T03:51:18.919Z,27.48
2019-01-25T03:53:47.092Z,27.93
2019-01-25T03:56:14.689Z,29.90
2019-01-25T03:58:43.153Z,26.97
2019-01-25T04:01:10.759Z,26.15
2019-01-25T04:03:39.221Z,28.90
2019-01-25T04:06:07.398Z,26.97
2019-01-25T04:08:34.745Z,29.32
2019-01-25T04:11:03.984Z,27.02
2019-01-25T04:13:32.308Z,26.50
2019-01-25T04:16:00.576Z,27.07
2019-01-25T04:18:29.189Z,26.93
2019-01-25T04:20:57.977Z,31.73
2019-01-25T04:23:26.387Z,30.62
2019-01-25T04:25:54.468Z,27.20
2019-01-25T04:28:22.291Z,27.00
2019-01-25T04:30:49.611Z,28.98
2019-01-25T04:33:18.413Z,29.67
2019-01-25T04:35:45.712Z,27.85
2019-01-25T04:38:13.809Z,29.90
2019-01-25T04:40:42.578Z,29.40
2019-01-25T04:43:10.643Z,27.55
2019-01-25T04:45:39.027Z,26.48
2019-01-25T04:48:12.592Z,28.10
2019-01-25T04:50:40.872Z,28.15
2019-01-25T04:53:08.543Z,26.70
2019-01-25T04:55:37.226Z,29.45
2019-01-25T04:58:20.898Z,31.65
2019-01-25T05:00:49.036Z,29.35
2019-01-25T05:03:17.121Z,28.55
2019-01-25T05:05:45.512Z,29.00
2019-01-25T05:08:18.165Z,27.95
2019-01-25T05:10:46.237Z,28.10
2019-01-25T05:13:13.980Z,29.15
2019-01-25T05:15:42.411Z,28.83
2019-01-25T05:18:10.580Z,28.42
2019-01-25T05:20:38.661Z,26.48
2019-01-25T05:23:08.093Z,29.95
2019-01-25T05:25:36.511Z,27.60
2019-01-25T05:28:14.311Z,29.07
2019-01-25T05:30:54.497Z,28.10
2019-01-25T05:33:22.537Z,28.02
2019-01-25T05:35:50.622Z,29.82
2019-01-25T05:38:18.692Z,30.12
2019-01-25T05:40:46.769Z,27.55
2019-01-25T05:43:14.630Z,28.30
2019-01-25T05:45:45.260Z,31.25
2019-01-25T05:48:13.104Z,28.77
2019-01-25T05:50:40.914Z,29.40
2019-01-25T05:53:09.431Z,28.30
2019-01-25T05:55:37.281Z,31.60
2019-01-25T05:58:06.668Z,27.62
2019-01-25T06:00:37.350Z,30.15
2019-01-25T06:03:07.415Z,28.40
2019-01-25T06:05:35.903Z,29.42
2019-01-25T06:08:32.579Z,30.88
2019-01-25T06:11:05.213Z,30.35
2019-01-25T06:13:33.579Z,28.38
2019-01-25T06:16:01.556Z,31.07
2019-01-25T06:18:30.136Z,30.30
2019-01-25T06:20:58.722Z,31.17
2019-01-25T06:23:26.403Z,27.32
2019-01-25T06:25:55.818Z,32.20
2019-01-25T06:28:24.749Z,29.72
2019-01-25T06:30:53.292Z,31.48
2019-01-25T06:33:21.632Z,30.12
2019-01-25T06:35:49.627Z,32.15
2019-01-25T06:38:17.695Z,31.33
2019-01-25T06:40:46.569Z,33.23
2019-01-25T06:43:14.825Z,30.48
2019-01-25T06:45:42.145Z,32.10
2019-01-25T06:48:12.061Z,32.80
2019-01-25T06:50:40.418Z,29.60
2019-01-25T06:53:08.878Z,32.50
2019-01-25T06:55:37.267Z,33.58
2019-01-25T06:58:22.354Z,32.28
2019-01-25T07:01:12.751Z,30.95
2019-01-25T07:03:40.413Z,31.82
2019-01-25T07:06:11.737Z,31.12
2019-01-25T07:08:40.145Z,31.80
2019-01-25T07:11:07.920Z,30.08
2019-01-25T07:13:35.985Z,33.00
2019-01-25T07:16:03.920Z,31.35
2019-01-25T07:18:32.224Z,33.20
2019-01-25T07:21:00.924Z,30.95
2019-01-25T07:23:29.087Z,30.60
2019-01-25T07:25:57.758Z,34.45
2019-01-25T07:28:25.745Z,35.13
2019-01-25T07:30:53.806Z,31.82
2019-01-25T07:33:22.069Z,33.08
2019-01-25T07:35:51.103Z,35.52
2019-01-25T07:38:19.239Z,32.05
2019-01-25T07:40:48.039Z,34.53
2019-01-25T07:43:18.168Z,33.53
2019-01-25T07:45:46.692Z,32.67
2019-01-25T07:48:15.705Z,32.73
2019-01-25T07:50:44.206Z,36.40
2019-01-25T07:53:13.323Z,31.93
2019-01-25T07:55:40.627Z,32.73
2019-01-25T07:58:08.805Z,31.85
2019-01-25T08:00:36.938Z,33.35
2019-01-25T08:03:04.833Z,33.90
2019-01-25T08:05:32.565Z,32.80
2019-01-25T08:08:00.221Z,31.82
2019-01-25T08:10:27.924Z,34.60
2019-01-25T08:12:56.360Z,32.30
2019-01-25T08:15:25.116Z,35.65
2019-01-25T08:17:53.624Z,34.83
2019-01-25T08:20:21.656Z,34.38
2019-01-25T08:22:50.602Z,33.98
2019-01-25T08:25:18.797Z,32.53
2019-01-25T08:27:46.949Z,34.73
2019-01-25T08:30:15.550Z,36.45
2019-01-25T08:32:44.745Z,35.17
2019-01-25T08:35:17.119Z,32.80
2019-01-25T08:38:16.225Z,34.50
2019-01-25T08:40:43.901Z,34.60
2019-01-25T08:43:12.530Z,33.55
2019-01-25T08:45:40.935Z,33.53
2019-01-25T08:48:09.088Z,37.17
2019-01-25T08:50:36.885Z,36.05
2019-01-25T08:53:05.368Z,36.58
2019-01-25T08:55:33.791Z,35.20
2019-01-25T08:58:04.130Z,36.90
2019-01-25T09:00:32.871Z,36.15
2019-01-25T09:03:01.719Z,35.40
2019-01-25T09:05:29.602Z,33.98
2019-01-25T09:07:57.694Z,35.08
2019-01-25T09:10:26.368Z,34.23
2019-01-25T09:12:53.611Z,34.60
2019-01-25T09:15:23.718Z,36.85
2019-01-25T09:17:51.843Z,36.35
2019-01-25T09:20:20.291Z,36.03
2019-01-25T09:22:48.585Z,35.95
2019-01-25T09:25:16.732Z,36.15
2019-01-25T09:27:45.119Z,38.70
2019-01-25T09:30:15.333Z,37.10
2019-01-25T09:32:43.845Z,35.00
2019-01-25T09:35:12.508Z,38.17
2019-01-25T09:37:40.186Z,36.15
2019-01-25T09:40:10.339Z,37.08
2019-01-25T09:42:37.680Z,38.13
2019-01-25T09:45:06.328Z,37.80
2019-01-25T09:47:34.532Z,39.08
2019-01-25T09:50:03.949Z,38.25
2019-01-25T09:52:32.283Z,35.83
2019-01-25T09:55:00.436Z,38.50
2019-01-25T09:57:31.631Z,37.78
2019-01-25T09:59:59.359Z,36.17
2019-01-25T10:02:28.231Z,38.17
2019-01-25T10:04:55.914Z,35.65
2019-01-25T10:07:24.841Z,37.38
2019-01-25T10:09:52.156Z,35.52
2019-01-25T10:12:20.465Z,37.23
2019-01-25T10:14:48.715Z,39.20
2019-01-25T10:17:16.795Z,39.27
2019-01-25T10:19:44.459Z,40.28
2019-01-25T10:22:12.835Z,36.70
2019-01-25T10:24:40.970Z,35.70
2019-01-25T10:27:10.203Z,40.58
2019-01-25T10:29:38.815Z,37.93
2019-01-25T10:32:06.952Z,39.23
2019-01-25T10:34:34.957Z,36.25
2019-01-25T10:37:02.707Z,40.73
2019-01-25T10:39:31.085Z,38.90
2019-01-25T10:41:58.421Z,42.05
2019-01-25T10:44:26.023Z,37.85
2019-01-25T10:46:54.177Z,39.48
2019-01-25T10:49:21.970Z,37.90
2019-01-25T10:51:50.087Z,39.70
2019-01-25T10:54:19.030Z,40.48
2019-01-25T10:56:46.775Z,40.00
2019-01-25T10:59:16.043Z,42.17
2019-01-25T11:01:44.563Z,38.35
2019-01-25T11:04:12.979Z,38.60
2019-01-25T11:06:41.939Z,38.80
2019-01-25T11:09:09.468Z,37.90
2019-01-25T11:11:37.864Z,37.38
2019-01-25T11:14:07.070Z,38.40
2019-01-25T11:16:34.737Z,38.58
2019-01-25T11:19:02.916Z,39.20
2019-01-25T11:21:31.785Z,42.70
2019-01-25T11:24:00.028Z,41.45
2019-01-25T11:26:28.826Z,40.30
2019-01-25T11:28:57.033Z,38.33
2019-01-25T11:31:25.226Z,38.88
2019-01-25T11:33:53.592Z,37.78
2019-01-25T11:36:22.010Z,40.70
2019-01-25T11:38:50.611Z,41.45
2019-01-25T11:41:19.276Z,40.67
2019-01-25T11:43:49.028Z,43.55
2019-01-25T11:46:16.703Z,41.85
2019-01-25T11:48:44.816Z,40.92
2019-01-25T11:51:13.183Z,38.55
2019-01-25T11:53:41.279Z,38.65
2019-01-25T11:56:09.705Z,37.45
2019-01-25T11:58:37.462Z,39.88
2019-01-25T12:01:06.022Z,37.83
2019-01-25T12:03:34.178Z,39.67
2019-01-25T12:06:02.303Z,38.55
2019-01-25T12:08:30.472Z,39.53
2019-01-25T12:10:59.044Z,40.33
2019-01-25T12:13:26.620Z,38.15
2019-01-25T12:15:55.004Z,40.80
2019-01-25T12:18:23.273Z,37.13
2019-01-25T12:20:51.432Z,38.13
2019-01-25T12:23:19.554Z,40.55
2019-01-25T12:25:48.716Z,39.80
2019-01-25T12:28:16.827Z,35.63
2019-01-25T12:30:45.497Z,36.05
2019-01-25T12:33:14.049Z,38.90
2019-01-25T12:35:43.647Z,37.73
2019-01-25T12:38:12.373Z,41.85
2019-01-25T12:40:42.306Z,39.25
2019-01-25T12:43:11.115Z,37.37
2019-01-25T12:45:39.751Z,37.57
2019-01-25T12:48:07.545Z,38.30
2019-01-25T12:50:48.993Z,38.90
2019-01-25T12:53:15.362Z,40.07
2019-01-25T12:55:45.684Z,39.60
2019-01-25T12:58:14.353Z,38.23
2019-01-25T13:00:42.464Z,39.00
2019-01-25T13:03:11.631Z,37.70
2019-01-25T13:05:43.383Z,37.50
2019-01-25T13:08:11.285Z,37.60
2019-01-25T13:10:39.769Z,37.73
2019-01-25T13:13:07.910Z,39.27
2019-01-25T13:15:36.043Z,40.60
2019-01-25T13:18:06.131Z,34.90
2019-01-25T13:20:39.584Z,39.05
2019-01-25T13:23:12.037Z,36.97
2019-01-25T13:25:47.293Z,38.83
2019-01-25T13:28:15.211Z,38.53
2019-01-25T13:30:45.469Z,35.98
2019-01-25T13:33:15.122Z,36.63
2019-01-25T13:35:43.203Z,35.15
2019-01-25T13:38:11.724Z,39.60
2019-01-25T13:40:39.859Z,38.08
2019-01-25T13:43:07.748Z,33.70
2019-01-25T13:45:37.160Z,36.38
2019-01-25T13:48:05.361Z,37.42
2019-01-25T13:50:33.914Z,35.03
2019-01-25T13:53:03.431Z,34.53
2019-01-25T13:55:32.831Z,34.85
2019-01-25T13:58:01.247Z,39.45
2019-01-25T14:00:32.401Z,38.30
2019-01-25T14:03:00.319Z,38.17
2019-01-25T14:05:28.568Z,36.28
2019-01-25T14:07:56.800Z,40.63
2019-01-25T14:10:29.924Z,41.88
2019-01-25T14:12:58.739Z,39.53
2019-01-25T14:15:27.796Z,36.93
2019-01-25T14:17:57.158Z,39.10
2019-01-25T14:20:26.387Z,36.08
2019-01-25T14:22:55.001Z,37.30
2019-01-25T14:25:23.417Z,35.78
2019-01-25T14:27:52.007Z,36.00
2019-01-25T14:30:21.898Z,41.08
2019-01-25T14:32:50.595Z,39.78
2019-01-25T14:35:20.095Z,37.13
2019-01-25T14:37:50.509Z,36.88
2019-01-25T14:40:21.043Z,40.10
2019-01-25T14:42:49.348Z,37.98
2019-01-25T14:45:17.929Z,37.17
2019-01-25T14:47:45.403Z,37.30
2019-01-25T14:50:15.560Z,38.40
2019-01-25T14:52:43.488Z,37.78
2019-01-25T14:55:11.855Z,38.23
2019-01-25T14:57:40.017Z,38.75
2019-01-25T15:00:09.375Z,36.17
2019-01-25T15:02:37.586Z,37.23
2019-01-25T15:05:09.324Z,38.30
2019-01-25T15:07:37.895Z,37.98
2019-01-25T15:10:11.239Z,37.25
2019-01-25T15:12:39.906Z,36.45
2019-01-25T15:15:10.422Z,34.27
2019-01-25T15:17:38.678Z,34.73
2019-01-25T15:20:08.724Z,34.23
2019-01-25T15:22:37.180Z,36.68
2019-01-25T15:25:06.371Z,32.40
2019-01-25T15:27:33.878Z,32.23
2019-01-25T15:30:02.041Z,34.95
2019-01-25T15:32:30.710Z,32.63
2019-01-25T15:34:58.702Z,33.45
2019-01-25T15:37:28.074Z,33.55
2019-01-25T15:39:57.159Z,29.75
2019-01-25T15:42:25.671Z,32.38
2019-01-25T15:44:54.559Z,30.92
2019-01-25T15:47:23.152Z,30.90
2019-01-25T15:49:51.299Z,30.08
2019-01-25T15:52:19.891Z,28.47
2019-01-25T15:54:49.539Z,29.02
2019-01-25T15:57:17.790Z,27.17
2019-01-25T15:59:45.845Z,30.20
2019-01-25T16:02:14.624Z,28.32
2019-01-25T16:04:44.209Z,26.45
2019-01-25T16:07:12.425Z,24.70
2019-01-25T16:09:43.189Z,25.57
2019-01-25T16:12:13.601Z,25.85
2019-01-25T16:14:41.893Z,22.50
2019-01-25T16:17:10.674Z,25.40
2019-01-25T16:19:39.262Z,26.45
2019-01-25T16:22:07.733Z,26.20
2019-01-25T16:24:36.511Z,22.55
2019-01-25T16:27:05.670Z,24.20
2019-01-25T16:29:34.111Z,23.02
2019-01-25T16:32:02.239Z,27.27
2019-01-25T16:34:30.349Z,25.97
2019-01-25T16:37:00.170Z,23.55
2019-01-25T16:39:29.007Z,21.07
2019-01-25T16:41:59.398Z,22.10
2019-01-25T16:44:30.233Z,22.80
2019-01-25T16:46:58.936Z,23.65
2019-01-25T16:49:27.931Z,22.60
2019-01-25T16:51:57.728Z,17.70
2019-01-25T16:54:27.301Z,18.15
2019-01-25T16:56:55.880Z,17.75
2019-01-25T16:59:26.239Z,17.10
2019-01-25T17:01:55.304Z,17.07
2019-01-25T17:04:23.888Z,15.70
2019-01-25T17:06:51.674Z,14.50
2019-01-25T17:09:22.457Z,16.85
2019-01-25T17:11:51.130Z,15.05
2019-01-25T17:14:18.572Z,17.52
2019-01-25T17:16:48.514Z,16.60
2019-01-25T17:19:17.353Z,16.50
2019-01-25T17:21:45.710Z,17.85
2019-01-25T17:24:13.455Z,18.20
2019-01-25T17:26:44.044Z,20.30
2019-01-25T17:29:12.105Z,18.27
2019-01-25T17:31:40.083Z,18.35
2019-01-25T17:34:09.179Z,16.95
2019-01-25T17:36:37.238Z,19.87
2019-01-25T17:39:14.912Z,18.07
2019-01-25T17:41:42.911Z,19.85
2019-01-25T17:44:14.119Z,20.32
2019-01-25T17:46:44.735Z,19.02
2019-01-25T17:49:14.791Z,20.57
2019-01-25T17:51:46.338Z,19.37
2019-01-25T17:54:16.879Z,21.65
2019-01-25T17:56:45.284Z,21.42
2019-01-25T17:59:13.668Z,20.08
2019-01-25T18:01:41.987Z,19.42
2019-01-25T18:04:10.846Z,18.70
2019-01-25T18:06:39.918Z,20.17
2019-01-25T18:09:11.912Z,19.07
2019-01-25T18:11:40.281Z,21.77
2019-01-25T18:14:09.376Z,20.82
2019-01-25T18:16:37.287Z,21.25
2019-01-25T18:19:05.716Z,18.45
2019-01-25T18:21:33.757Z,20.37
2019-01-25T18:24:02.759Z,20.70
2019-01-25T18:26:30.767Z,22.35
2019-01-25T18:29:14.470Z,21.05
2019-01-25T18:31:42.691Z,20.70
2019-01-25T18:34:11.127Z,20.17
2019-01-25T18:36:39.189Z,20.08
2019-01-25T18:39:08.398Z,20.65
2019-01-25T18:41:36.481Z,20.23
2019-01-25T18:44:06.852Z,19.50
2019-01-25T18:46:35.490Z,18.27
2019-01-25T18:49:05.222Z,20.48
2019-01-25T18:51:33.354Z,21.65
2019-01-25T18:54:02.365Z,20.02
2019-01-25T18:56:30.655Z,21.95
2019-01-25T18:59:01.315Z,21.10
2019-01-25T19:01:31.809Z,21.93
2019-01-25T19:03:59.655Z,23.67
2019-01-25T19:06:29.153Z,21.48
2019-01-25T19:08:57.847Z,23.42
2019-01-25T19:11:27.145Z,25.90
2019-01-25T19:14:00.992Z,24.20
2019-01-25T19:16:31.938Z,25.65
2019-01-25T19:19:00.060Z,25.85
2019-01-25T19:21:29.556Z,24.85
2019-01-25T19:23:58.481Z,25.75
2019-01-25T19:26:27.698Z,23.20
2019-01-25T19:28:55.780Z,24.32
2019-01-25T19:31:25.986Z,28.12
2019-01-25T19:33:53.724Z,26.57
2019-01-25T19:36:23.044Z,24.87
2019-01-25T19:38:56.639Z,25.15
2019-01-25T19:41:24.801Z,22.90
2019-01-25T19:43:53.580Z,24.65
2019-01-25T19:46:31.102Z,25.30
2019-01-25T19:48:59.842Z,25.23
2019-01-25T19:51:28.069Z,24.02
2019-01-25T19:54:05.453Z,26.73
2019-01-25T19:56:35.522Z,25.37
2019-01-25T19:59:07.098Z,26.35
2019-01-25T20:01:36.147Z,26.65
2019-01-25T20:04:08.097Z,30.25
2019-01-25T20:06:40.241Z,28.50
2019-01-25T20:09:10.219Z,28.50
2019-01-25T20:11:38.866Z,27.60
2019-01-25T20:14:07.646Z,30.12
2019-01-25T20:16:40.076Z,26.40
2019-01-25T20:19:16.651Z,28.00
2019-01-25T20:21:46.193Z,29.50
2019-01-25T20:24:16.531Z,25.08
2019-01-25T20:26:54.411Z,26.60
2019-01-25T20:29:29.304Z,27.52
2019-01-25T20:32:01.429Z,28.10
2019-01-25T20:34:29.742Z,27.73
2019-01-25T20:36:57.923Z,25.92
2019-01-25T20:39:36.663Z,27.73
2019-01-25T20:42:06.000Z,26.40
2019-01-25T20:44:37.084Z,27.87
2019-01-25T20:47:05.315Z,28.02
2019-01-25T20:49:37.419Z,26.00
2019-01-25T20:52:06.338Z,28.95
2019-01-25T20:54:34.578Z,27.10
2019-01-25T20:57:02.066Z,27.50
2019-01-25T20:59:30.149Z,26.57
2019-01-25T21:01:58.829Z,28.67
2019-01-25T21:04:27.931Z,25.20
2019-01-25T21:06:57.906Z,24.85
2019-01-25T21:09:26.702Z,24.23
2019-01-25T21:11:56.526Z,25.68
2019-01-25T21:14:26.779Z,23.75
2019-01-25T21:16:55.320Z,27.77
2019-01-25T21:19:24.547Z,24.80
2019-01-25T21:21:53.327Z,24.27
2019-01-25T21:24:21.512Z,24.27
2019-01-25T21:26:49.569Z,24.12
2019-01-25T21:29:17.727Z,25.50
2019-01-25T21:31:45.858Z,25.62
2019-01-25T21:34:14.578Z,24.47
2019-01-25T21:36:42.864Z,28.73
2019-01-25T21:39:12.070Z,25.05
2019-01-25T21:41:42.309Z,25.68
2019-01-25T21:44:10.365Z,26.33
2019-01-25T21:46:40.310Z,27.02
2019-01-25T21:49:08.232Z,25.32
2019-01-25T21:51:36.373Z,24.75
2019-01-25T21:54:04.479Z,23.98
2019-01-25T21:56:32.558Z,26.37
2019-01-25T21:59:00.317Z,25.15
2019-01-25T22:01:28.103Z,24.98
2019-01-25T22:03:55.930Z,22.90
2019-01-25T22:06:24.982Z,26.23
2019-01-25T22:08:53.737Z,22.35
2019-01-25T22:11:22.527Z,25.45
2019-01-25T22:13:52.965Z,24.12
2019-01-25T22:16:20.423Z,23.57
2019-01-25T22:18:49.155Z,24.60
2019-01-25T22:21:17.628Z,24.18
2019-01-25T22:23:45.796Z,25.65
2019-01-25T22:26:14.455Z,23.92
2019-01-25T22:28:42.497Z,23.05
2019-01-25T22:31:10.264Z,20.80
2019-01-25T22:33:38.331Z,22.30
2019-01-25T22:36:06.010Z,22.45
2019-01-25T22:38:34.318Z,25.50
2019-01-25T22:41:02.592Z,21.80
2019-01-25T22:43:33.923Z,21.93
2019-01-25T22:46:02.114Z,22.95
2019-01-25T22:48:29.937Z,21.05
2019-01-25T22:51:00.679Z,23.73
2019-01-25T22:53:28.541Z,20.27
2019-01-25T22:55:57.913Z,23.18
2019-01-25T22:58:26.661Z,22.25
2019-01-25T23:01:22.262Z,22.22
2019-01-25T23:04:40.645Z,21.55
2019-01-25T23:07:16.571Z,22.07
2019-01-25T23:09:56.464Z,21.73
2019-01-25T23:12:24.687Z,20.77
2019-01-25T23:14:53.211Z,23.45
2019-01-25T23:17:21.376Z,21.50
2019-01-25T23:19:49.420Z,22.45
2019-01-25T23:22:18.327Z,20.92
2019-01-25T23:24:48.941Z,22.70
2019-01-25T23:27:17.769Z,21.33
2019-01-25T23:29:45.803Z,22.13
2019-01-25T23:32:14.031Z,24.07
2019-01-25T23:34:43.151Z,23.30
2019-01-25T23:37:11.383Z,22.75
2019-01-25T23:39:39.436Z,21.80
2019-01-25T23:42:07.082Z,22.65
2019-01-25T23:44:35.206Z,21.62
2019-01-25T23:47:04.818Z,19.65
2019-01-25T23:49:32.928Z,17.42
2019-01-25T23:52:01.350Z,20.43
2019-01-25T23:54:30.433Z,20.70
2019-01-25T23:56:59.859Z,20.90
2019-01-25T23:59:28.870Z,22.80
